createdAt,value
2017-02-20T00:00:55.223Z,1014.82
2017-02-20T00:01:55.227Z,1014.86
2017-02-20T00:02:55.232Z,1014.85
2017-02-20T00:03:55.238Z,1014.83
2017-02-20T00:04:55.244Z,1014.83
2017-02-20T00:05:55.250Z,1014.81
2017-02-20T00:06:55.253Z,1014.78
2017-02-20T00:07:55.261Z,1014.8
2017-02-20T00:08:55.317Z,1014.81
2017-02-20T00:09:55.321Z,1014.78
2017-02-20T00:10:55.277Z,1014.77
2017-02-20T00:11:55.333Z,1014.79
2017-02-20T00:12:55.288Z,1014.8
2017-02-20T00:13:55.344Z,1014.79
2017-02-20T00:14:55.349Z,1014.81
2017-02-20T00:15:55.305Z,1014.8
2017-02-20T00:16:55.311Z,1014.84
2017-02-20T00:17:55.317Z,1014.8
2017-02-20T00:18:55.373Z,1014.81
2017-02-20T00:19:55.326Z,1014.85
2017-02-20T00:20:55.336Z,1014.83
2017-02-20T00:21:55.341Z,1014.84
2017-02-20T00:22:55.344Z,1014.8
2017-02-20T00:23:55.350Z,1014.84
2017-02-20T00:24:55.379Z,1014.85
2017-02-20T00:25:55.358Z,1014.82
2017-02-20T00:26:55.366Z,1014.85
2017-02-20T00:27:55.372Z,1014.82
2017-02-20T00:28:55.378Z,1014.8
2017-02-20T00:29:55.383Z,1014.79
2017-02-20T00:30:55.390Z,1014.78
2017-02-20T00:31:55.445Z,1014.81
2017-02-20T00:32:55.399Z,1014.8
2017-02-20T00:33:55.405Z,1014.78
2017-02-20T00:34:55.711Z,1014.76
2017-02-20T00:35:55.416Z,1014.73
2017-02-20T00:36:55.422Z,1014.68
2017-02-20T00:37:55.428Z,1014.68
2017-02-20T00:38:55.484Z,1014.65
2017-02-20T00:39:55.489Z,1014.68
2017-02-20T00:40:55.494Z,1014.65
2017-02-20T00:41:55.452Z,1014.67
2017-02-20T00:42:55.457Z,1014.62
2017-02-20T00:44:55.466Z,1014.61
2017-02-20T00:45:55.523Z,1014.63
2017-02-20T00:46:55.477Z,1014.68
2017-02-20T00:47:55.484Z,1014.59
2017-02-20T00:48:55.489Z,1014.61
2017-02-20T00:49:55.495Z,1014.61
2017-02-20T00:50:55.502Z,1014.57
2017-02-20T00:51:55.557Z,1014.52
2017-02-20T00:52:55.511Z,1014.53
2017-02-20T00:53:55.517Z,1014.49
2017-02-20T00:54:55.522Z,1014.41
2017-02-20T00:55:55.578Z,1014.32
2017-02-20T00:56:55.533Z,1014.23
2017-02-20T00:57:55.541Z,1014.27
2017-02-20T00:58:55.545Z,1014.25
2017-02-20T00:59:55.551Z,1014.32
2017-02-20T01:00:55.607Z,1014.4
2017-02-20T01:01:55.562Z,1014.42
2017-02-20T01:02:55.568Z,1014.4
2017-02-20T01:03:55.572Z,1014.37
2017-02-20T01:04:55.579Z,1014.38
2017-02-20T01:05:55.635Z,1014.37
2017-02-20T01:06:55.590Z,1014.38
2017-02-20T01:07:55.599Z,1014.32
2017-02-20T01:08:55.901Z,1014.32
2017-02-20T01:09:55.657Z,1014.34
2017-02-20T01:10:55.614Z,1014.29
2017-02-20T01:11:55.618Z,1014.3
2017-02-20T01:12:55.621Z,1014.29
2017-02-20T01:13:55.629Z,1014.27
2017-02-20T01:14:55.634Z,1014.26
2017-02-20T01:15:55.642Z,1014.27
2017-02-20T01:16:55.645Z,1014.22
2017-02-20T01:17:55.702Z,1014.24
2017-02-20T01:18:55.656Z,1014.23
2017-02-20T01:19:55.661Z,1014.23
2017-02-20T01:20:55.670Z,1014.23
2017-02-20T01:21:55.673Z,1014.18
2017-02-20T01:22:55.729Z,1014.21
2017-02-20T01:23:55.684Z,1014.23
2017-02-20T01:24:55.691Z,1014.21
2017-02-20T01:25:55.694Z,1014.23
2017-02-20T01:26:55.702Z,1014.16
2017-02-20T01:27:55.707Z,1014.15
2017-02-20T01:28:55.714Z,1014.12
2017-02-20T01:29:55.719Z,1014.1
2017-02-20T01:30:55.725Z,1014.07
2017-02-20T01:31:55.730Z,1014.06
2017-02-20T01:32:55.736Z,1014.09
2017-02-20T01:33:55.742Z,1014.03
2017-02-20T01:34:55.746Z,1014
2017-02-20T01:35:55.754Z,1014.02
2017-02-20T01:36:55.759Z,1013.99
2017-02-20T01:37:55.811Z,1013.97
2017-02-20T01:38:55.769Z,1013.97
2017-02-20T01:39:55.822Z,1013.96
2017-02-20T01:40:55.781Z,1013.92
2017-02-20T01:41:55.784Z,1013.92
2017-02-20T01:42:55.841Z,1013.92
2017-02-20T01:43:55.796Z,1013.91
2017-02-20T01:44:55.802Z,1013.88
2017-02-20T01:45:55.807Z,1013.87
2017-02-20T01:46:55.814Z,1013.84
2017-02-20T01:47:55.819Z,1013.85
2017-02-20T01:48:55.822Z,1013.82
2017-02-20T01:49:55.830Z,1013.77
2017-02-20T01:50:55.833Z,1013.77
2017-02-20T01:51:55.841Z,1013.85
2017-02-20T01:52:55.845Z,1013.75
2017-02-20T01:53:55.902Z,1013.73
2017-02-20T01:54:55.857Z,1013.75
2017-02-20T01:55:55.863Z,1013.72
2017-02-20T01:56:55.918Z,1013.78
2017-02-20T01:57:55.875Z,1013.75
2017-02-20T01:58:55.881Z,1013.71
2017-02-20T01:59:55.884Z,1013.69
2017-02-20T02:00:55.890Z,1013.74
2017-02-20T02:01:55.895Z,1013.71
2017-02-20T02:02:55.951Z,1013.72
2017-02-20T02:03:55.907Z,1013.71
2017-02-20T02:04:55.912Z,1013.73
2017-02-20T02:05:55.918Z,1013.69
2017-02-20T02:06:55.925Z,1013.72
2017-02-20T02:07:55.928Z,1013.66
2017-02-20T02:08:55.986Z,1013.67
2017-02-20T02:09:55.993Z,1013.66
2017-02-20T02:10:55.946Z,1013.64
2017-02-20T02:11:55.949Z,1013.62
2017-02-20T02:12:56.008Z,1013.58
2017-02-20T02:13:55.964Z,1013.57
2017-02-20T02:14:55.968Z,1013.58
2017-02-20T02:15:56.025Z,1013.54
2017-02-20T02:16:55.979Z,1013.52
2017-02-20T02:17:55.988Z,1013.54
2017-02-20T02:18:55.990Z,1013.53
2017-02-20T02:19:55.998Z,1013.51
2017-02-20T02:20:56.020Z,1013.5
2017-02-20T02:21:56.009Z,1013.54
2017-02-20T02:22:56.011Z,1013.46
2017-02-20T02:23:56.019Z,1013.42
2017-02-20T02:24:56.073Z,1013.47
2017-02-20T02:25:56.079Z,1013.49
2017-02-20T02:26:56.088Z,1013.53
2017-02-20T02:27:56.042Z,1013.5
2017-02-20T02:28:56.098Z,1013.5
2017-02-20T02:29:56.051Z,1013.48
2017-02-20T02:30:56.058Z,1013.51
2017-02-20T02:31:56.113Z,1013.49
2017-02-20T02:32:56.070Z,1013.49
2017-02-20T02:33:56.074Z,1013.48
2017-02-20T02:34:56.079Z,1013.44
2017-02-20T02:35:56.085Z,1013.44
2017-02-20T02:36:56.091Z,1013.4
2017-02-20T02:37:56.146Z,1013.44
2017-02-20T02:38:56.102Z,1013.38
2017-02-20T02:39:56.109Z,1013.4
2017-02-20T02:40:56.112Z,1013.4
2017-02-20T02:41:56.119Z,1013.39
2017-02-20T02:42:56.125Z,1013.38
2017-02-20T02:43:56.181Z,1013.31
2017-02-20T02:44:56.135Z,1013.32
2017-02-20T02:45:56.142Z,1013.24
2017-02-20T02:46:56.147Z,1013.27
2017-02-20T02:47:56.151Z,1013.26
2017-02-20T02:48:56.157Z,1013.2
2017-02-20T02:49:56.163Z,1013.21
2017-02-20T02:50:56.220Z,1013.18
2017-02-20T02:51:56.173Z,1013.16
2017-02-20T02:52:56.179Z,1013.17
2017-02-20T02:53:56.185Z,1013.17
2017-02-20T02:54:56.189Z,1013.16
2017-02-20T02:55:56.247Z,1013.14
2017-02-20T02:56:56.201Z,1013.1
2017-02-20T02:57:56.211Z,1013.08
2017-02-20T02:58:56.213Z,1013.11
2017-02-20T02:59:56.224Z,1013.11
2017-02-20T03:00:56.241Z,1013.09
2017-02-20T03:01:56.228Z,1013.05
2017-02-20T03:02:56.236Z,1013.03
2017-02-20T03:03:56.242Z,1013.07
2017-02-20T03:04:56.247Z,1013.07
2017-02-20T03:05:56.251Z,1013.08
2017-02-20T03:06:56.258Z,1013.03
2017-02-20T03:07:56.264Z,1013
2017-02-20T03:08:56.271Z,1013.02
2017-02-20T03:09:56.274Z,1013.01
2017-02-20T03:10:56.281Z,1013.02
2017-02-20T03:11:56.308Z,1013.04
2017-02-20T03:12:56.290Z,1013.01
2017-02-20T03:13:56.297Z,1013
2017-02-20T03:14:56.301Z,1012.99
2017-02-20T03:15:56.308Z,1012.95
2017-02-20T03:16:56.364Z,1013
2017-02-20T03:17:56.370Z,1013.04
2017-02-20T03:18:56.377Z,1013.02
2017-02-20T03:19:56.333Z,1013.06
2017-02-20T03:20:56.335Z,1013.05
2017-02-20T03:21:56.391Z,1012.97
2017-02-20T03:22:56.347Z,1012.98
2017-02-20T03:23:56.353Z,1013.04
2017-02-20T03:24:56.359Z,1013.05
2017-02-20T03:25:56.365Z,1012.98
2017-02-20T03:26:56.370Z,1012.97
2017-02-20T03:27:56.377Z,1013.07
2017-02-20T03:28:56.381Z,1013.05
2017-02-20T03:29:56.412Z,1013.06
2017-02-20T03:30:56.395Z,1013.06
2017-02-20T03:31:56.400Z,1013.03
2017-02-20T03:32:56.404Z,1013.04
2017-02-20T03:33:56.411Z,1013.09
2017-02-20T03:34:56.415Z,1013.07
2017-02-20T03:35:56.472Z,1013.1
2017-02-20T03:36:56.428Z,1013.13
2017-02-20T03:37:56.435Z,1013.12
2017-02-20T03:38:56.440Z,1013.17
2017-02-20T03:39:56.445Z,1013.2
2017-02-20T03:40:56.452Z,1013.17
2017-02-20T03:41:56.457Z,1013.13
2017-02-20T03:42:56.462Z,1013.13
2017-02-20T03:43:56.518Z,1013.15
2017-02-20T03:44:56.474Z,1013.14
2017-02-20T03:45:56.529Z,1013.16
2017-02-20T03:46:56.486Z,1013.21
2017-02-20T03:47:56.489Z,1013.2
2017-02-20T03:48:56.509Z,1013.27
2017-02-20T03:49:56.550Z,1013.3
2017-02-20T03:50:56.558Z,1013.33
2017-02-20T03:51:56.515Z,1013.32
2017-02-20T03:52:56.519Z,1013.36
2017-02-20T03:53:56.575Z,1013.32
2017-02-20T03:54:56.531Z,1013.31
2017-02-20T03:55:56.538Z,1013.3
2017-02-20T03:56:56.541Z,1013.25
2017-02-20T03:57:56.548Z,1013.22
2017-02-20T03:58:56.558Z,1013.2
2017-02-20T03:59:56.561Z,1013.18
2017-02-20T04:00:56.567Z,1013.16
2017-02-20T04:01:56.571Z,1013.16
2017-02-20T04:02:56.576Z,1013.16
2017-02-20T04:03:56.584Z,1013.11
2017-02-20T04:04:56.590Z,1013.1
2017-02-20T04:05:56.595Z,1013.07
2017-02-20T04:06:56.601Z,1013.09
2017-02-20T04:07:56.607Z,1013.12
2017-02-20T04:08:56.612Z,1013.07
2017-02-20T04:09:56.617Z,1013.11
2017-02-20T04:10:56.674Z,1013.14
2017-02-20T04:11:56.629Z,1013.11
2017-02-20T04:12:56.686Z,1013.11
2017-02-20T04:13:56.643Z,1013.05
2017-02-20T04:14:56.648Z,1013.1
2017-02-20T04:15:56.653Z,1013.13
2017-02-20T04:16:56.659Z,1013.12
2017-02-20T04:17:56.664Z,1013.12
2017-02-20T04:18:56.670Z,1013.07
2017-02-20T04:19:56.676Z,1013.09
2017-02-20T04:20:56.683Z,1013.1
2017-02-20T04:21:56.689Z,1013.03
2017-02-20T04:22:56.741Z,1013.06
2017-02-20T04:23:56.700Z,1013.04
2017-02-20T04:24:56.704Z,1013
2017-02-20T04:25:56.711Z,1013.04
2017-02-20T04:26:56.715Z,1013.02
2017-02-20T04:27:56.722Z,1013.01
2017-02-20T04:28:56.728Z,1013.03
2017-02-20T04:29:56.731Z,1013.03
2017-02-20T04:30:56.738Z,1013.04
2017-02-20T04:31:56.744Z,1012.99
2017-02-20T04:32:56.750Z,1013
2017-02-20T04:33:56.755Z,1012.94
2017-02-20T04:34:56.811Z,1012.9
2017-02-20T04:35:56.768Z,1012.91
2017-02-20T04:36:56.772Z,1012.84
2017-02-20T04:37:56.778Z,1012.79
2017-02-20T04:38:57.084Z,1012.85
2017-02-20T04:39:56.789Z,1012.8
2017-02-20T04:40:56.796Z,1012.86
2017-02-20T04:41:56.800Z,1012.84
2017-02-20T04:42:56.856Z,1012.84
2017-02-20T04:43:56.812Z,1012.77
2017-02-20T04:44:56.816Z,1012.79
2017-02-20T04:45:56.823Z,1012.73
2017-02-20T04:46:56.879Z,1012.67
2017-02-20T04:47:56.886Z,1012.68
2017-02-20T04:48:56.837Z,1012.66
2017-02-20T04:49:56.845Z,1012.68
2017-02-20T04:50:56.850Z,1012.71
2017-02-20T04:51:56.856Z,1012.74
2017-02-20T04:52:56.861Z,1012.73
2017-02-20T04:53:56.865Z,1012.74
2017-02-20T04:54:56.873Z,1012.72
2017-02-20T04:55:56.877Z,1012.68
2017-02-20T04:56:56.934Z,1012.65
2017-02-20T04:57:56.940Z,1012.63
2017-02-20T04:58:56.895Z,1012.65
2017-02-20T04:59:56.899Z,1012.62
2017-02-20T05:00:56.908Z,1012.64
2017-02-20T05:01:56.912Z,1012.68
2017-02-20T05:02:56.917Z,1012.71
2017-02-20T05:03:56.923Z,1012.7
2017-02-20T05:04:56.928Z,1012.71
2017-02-20T05:05:56.985Z,1012.71
2017-02-20T05:06:56.988Z,1012.66
2017-02-20T05:07:56.945Z,1012.67
2017-02-20T05:08:56.952Z,1012.62
2017-02-20T05:09:56.956Z,1012.63
2017-02-20T05:10:56.962Z,1012.54
2017-02-20T05:11:57.567Z,1012.58
2017-02-20T05:12:57.024Z,1012.56
2017-02-20T05:14:56.984Z,1012.49
2017-02-20T05:15:57.039Z,1012.48
2017-02-20T05:16:56.996Z,1012.46
2017-02-20T05:17:57.051Z,1012.38
2017-02-20T05:18:57.006Z,1012.38
2017-02-20T05:19:57.010Z,1012.38
2017-02-20T05:20:57.016Z,1012.33
2017-02-20T05:21:57.023Z,1012.28
2017-02-20T05:22:57.027Z,1012.25
2017-02-20T05:23:57.033Z,1012.21
2017-02-20T05:24:57.088Z,1012.24
2017-02-20T05:25:57.044Z,1012.2
2017-02-20T05:26:57.050Z,1012.25
2017-02-20T05:27:57.053Z,1012.19
2017-02-20T05:28:57.060Z,1012.24
2017-02-20T05:29:57.066Z,1012.23
2017-02-20T05:30:57.072Z,1012.21
2017-02-20T05:31:57.077Z,1012.21
2017-02-20T05:32:57.132Z,1012.21
2017-02-20T05:33:57.089Z,1012.25
2017-02-20T05:34:57.095Z,1012.17
2017-02-20T05:35:57.099Z,1012.2
2017-02-20T05:36:57.104Z,1012.13
2017-02-20T05:37:57.111Z,1012.18
2017-02-20T05:38:57.116Z,1012.19
2017-02-20T05:39:57.120Z,1012.17
2017-02-20T05:40:57.176Z,1012.16
2017-02-20T05:41:57.183Z,1012.13
2017-02-20T05:42:57.136Z,1012.12
2017-02-20T05:43:57.192Z,1012.15
2017-02-20T05:44:57.149Z,1012.1
2017-02-20T05:45:57.155Z,1012.08
2017-02-20T05:46:57.209Z,1012.12
2017-02-20T05:47:57.165Z,1012.17
2017-02-20T05:48:57.171Z,1012.11
2017-02-20T05:49:57.175Z,1012.09
2017-02-20T05:50:57.182Z,1012.09
2017-02-20T05:51:57.236Z,1012.09
2017-02-20T05:52:57.192Z,1012.09
2017-02-20T05:53:57.197Z,1012.13
2017-02-20T05:54:57.203Z,1012.11
2017-02-20T05:55:57.209Z,1012.11
2017-02-20T05:56:57.214Z,1012.11
2017-02-20T05:57:57.220Z,1012.13
2017-02-20T05:58:57.227Z,1012.18
2017-02-20T05:59:57.231Z,1012.18
2017-02-20T06:00:57.238Z,1012.16
2017-02-20T06:01:57.242Z,1012.21
2017-02-20T06:02:57.248Z,1012.26
2017-02-20T06:03:57.251Z,1012.25
2017-02-20T06:04:57.257Z,1012.21
2017-02-20T06:05:57.313Z,1012.21
2017-02-20T06:06:57.319Z,1012.19
2017-02-20T06:07:57.275Z,1012.17
2017-02-20T06:08:57.281Z,1012.22
2017-02-20T06:09:57.286Z,1012.21
2017-02-20T06:10:57.291Z,1012.24
2017-02-20T06:11:57.347Z,1012.19
2017-02-20T06:12:57.303Z,1012.26
2017-02-20T06:13:57.359Z,1012.24
2017-02-20T06:14:57.364Z,1012.37
2017-02-20T06:15:57.319Z,1012.26
2017-02-20T06:16:57.476Z,1012.26
2017-02-20T06:17:57.380Z,1012.31
2017-02-20T06:18:57.335Z,1012.26
2017-02-20T06:19:57.390Z,1012.32
2017-02-20T06:20:57.346Z,1012.31
2017-02-20T06:21:57.354Z,1012.37
2017-02-20T06:22:57.408Z,1012.33
2017-02-20T06:23:57.365Z,1012.34
2017-02-20T06:24:57.369Z,1012.32
2017-02-20T06:25:57.375Z,1012.37
2017-02-20T06:26:57.380Z,1012.33
2017-02-20T06:27:57.435Z,1012.33
2017-02-20T06:28:57.441Z,1012.27
2017-02-20T06:29:57.396Z,1012.3
2017-02-20T06:30:57.452Z,1012.28
2017-02-20T06:31:57.409Z,1012.29
2017-02-20T06:32:57.413Z,1012.25
2017-02-20T06:33:57.468Z,1012.3
2017-02-20T06:34:57.427Z,1012.28
2017-02-20T06:35:57.430Z,1012.28
2017-02-20T06:36:57.435Z,1012.3
2017-02-20T06:37:57.440Z,1012.31
2017-02-20T06:38:57.446Z,1012.19
2017-02-20T06:39:57.451Z,1012.21
2017-02-20T06:40:57.507Z,1012.2
2017-02-20T06:41:57.462Z,1012.2
2017-02-20T06:42:57.469Z,1012.23
2017-02-20T06:43:57.474Z,1012.17
2017-02-20T06:44:57.478Z,1012.18
2017-02-20T06:45:57.535Z,1012.22
2017-02-20T06:46:57.490Z,1012.15
2017-02-20T06:47:57.496Z,1012.21
2017-02-20T06:48:57.501Z,1012.11
2017-02-20T06:49:57.506Z,1012.14
2017-02-20T06:50:57.512Z,1012.16
2017-02-20T06:51:57.516Z,1012.15
2017-02-20T06:52:57.523Z,1012.18
2017-02-20T06:53:57.530Z,1012.15
2017-02-20T06:54:57.584Z,1012.12
2017-02-20T06:55:57.539Z,1012.16
2017-02-20T06:56:57.595Z,1012.2
2017-02-20T06:57:57.602Z,1012.16
2017-02-20T06:58:57.555Z,1012.14
2017-02-20T06:59:57.611Z,1012.14
2017-02-20T07:00:57.567Z,1012.11
2017-02-20T07:01:57.622Z,1012.14
2017-02-20T07:02:57.578Z,1012.16
2017-02-20T07:03:57.583Z,1012.13
2017-02-20T07:04:57.589Z,1012.07
2017-02-20T07:05:57.595Z,1012.12
2017-02-20T07:06:57.599Z,1012.09
2017-02-20T07:07:57.605Z,1012.07
2017-02-20T07:08:57.611Z,1012.06
2017-02-20T07:09:57.616Z,1012.09
2017-02-20T07:10:57.620Z,1012.07
2017-02-20T07:11:57.626Z,1012.08
2017-02-20T07:12:57.632Z,1012.03
2017-02-20T07:13:57.638Z,1012.04
2017-02-20T07:14:57.643Z,1012.02
2017-02-20T07:15:57.648Z,1012
2017-02-20T07:16:57.703Z,1011.97
2017-02-20T07:17:57.709Z,1011.92
2017-02-20T07:18:57.665Z,1011.97
2017-02-20T07:19:57.669Z,1011.95
2017-02-20T07:20:57.677Z,1011.97
2017-02-20T07:21:57.681Z,1011.93
2017-02-20T07:22:57.686Z,1011.95
2017-02-20T07:23:57.693Z,1011.93
2017-02-20T07:24:57.699Z,1011.94
2017-02-20T07:25:57.703Z,1011.99
2017-02-20T07:26:57.709Z,1011.99
2017-02-20T07:27:57.715Z,1011.98
2017-02-20T07:28:57.719Z,1011.99
2017-02-20T07:29:57.726Z,1011.97
2017-02-20T07:30:57.781Z,1011.98
2017-02-20T07:31:57.787Z,1011.98
2017-02-20T07:32:57.791Z,1012
2017-02-20T07:33:57.746Z,1011.97
2017-02-20T07:34:57.754Z,1012.03
2017-02-20T07:35:57.760Z,1011.96
2017-02-20T07:36:57.764Z,1012
2017-02-20T07:37:57.769Z,1012.04
2017-02-20T07:38:57.775Z,1012.07
2017-02-20T07:39:57.783Z,1012.1
2017-02-20T07:40:57.786Z,1012.04
2017-02-20T07:41:57.842Z,1012.04
2017-02-20T07:42:57.799Z,1012
2017-02-20T07:43:59.354Z,1011.96
2017-02-20T07:44:57.810Z,1011.96
2017-02-20T07:45:57.863Z,1011.97
2017-02-20T07:46:57.821Z,1011.95
2017-02-20T07:47:57.827Z,1011.95
2017-02-20T07:48:57.831Z,1011.87
2017-02-20T07:49:57.839Z,1011.83
2017-02-20T07:50:57.843Z,1011.83
2017-02-20T07:51:57.899Z,1011.77
2017-02-20T07:52:57.856Z,1011.79
2017-02-20T07:53:57.861Z,1011.7
2017-02-20T07:54:57.867Z,1011.72
2017-02-20T07:55:57.874Z,1011.69
2017-02-20T07:56:57.880Z,1011.67
2017-02-20T07:57:57.886Z,1011.55
2017-02-20T07:58:57.892Z,1011.51
2017-02-20T07:59:57.898Z,1011.5
2017-02-20T08:00:57.905Z,1011.47
2017-02-20T08:01:57.911Z,1011.57
2017-02-20T08:02:57.917Z,1011.45
2017-02-20T08:03:57.923Z,1011.46
2017-02-20T08:04:57.981Z,1011.54
2017-02-20T08:05:57.935Z,1011.55
2017-02-20T08:06:57.992Z,1011.55
2017-02-20T08:07:57.948Z,1011.65
2017-02-20T08:08:57.954Z,1011.55
2017-02-20T08:09:57.960Z,1011.58
2017-02-20T08:10:57.968Z,1011.58
2017-02-20T08:11:57.973Z,1011.53
2017-02-20T08:12:57.978Z,1011.54
2017-02-20T08:13:58.036Z,1011.67
2017-02-20T08:14:57.992Z,1011.53
2017-02-20T08:15:58.000Z,1011.57
2017-02-20T08:16:58.003Z,1011.52
2017-02-20T08:17:58.062Z,1011.53
2017-02-20T08:18:58.018Z,1011.55
2017-02-20T08:19:58.023Z,1011.61
2017-02-20T08:20:58.030Z,1011.54
2017-02-20T08:21:58.038Z,1011.54
2017-02-20T08:22:58.043Z,1011.55
2017-02-20T08:23:58.049Z,1011.58
2017-02-20T08:24:58.056Z,1011.51
2017-02-20T08:25:58.062Z,1011.55
2017-02-20T08:26:58.121Z,1011.56
2017-02-20T08:27:58.075Z,1011.5
2017-02-20T08:28:58.080Z,1011.48
2017-02-20T08:29:58.089Z,1011.42
2017-02-20T08:30:58.093Z,1011.4
2017-02-20T08:31:58.100Z,1011.44
2017-02-20T08:32:58.106Z,1011.44
2017-02-20T08:33:58.113Z,1011.34
2017-02-20T08:34:58.168Z,1011.4
2017-02-20T08:35:58.142Z,1011.37
2017-02-20T08:36:58.133Z,1011.4
2017-02-20T08:37:58.189Z,1011.34
2017-02-20T08:38:58.146Z,1011.25
2017-02-20T08:39:58.201Z,1011.34
2017-02-20T08:40:58.158Z,1011.32
2017-02-20T08:41:58.164Z,1011.37
2017-02-20T08:42:58.171Z,1011.32
2017-02-20T08:43:58.176Z,1011.33
2017-02-20T08:44:58.184Z,1011.37
2017-02-20T08:45:58.190Z,1011.37
2017-02-20T08:46:58.245Z,1011.36
2017-02-20T08:47:58.203Z,1011.43
2017-02-20T08:48:58.209Z,1011.39
2017-02-20T08:49:58.217Z,1011.47
2017-02-20T08:50:58.221Z,1011.41
2017-02-20T08:51:58.228Z,1011.35
2017-02-20T08:52:58.233Z,1011.28
2017-02-20T08:53:58.240Z,1011.35
2017-02-20T08:54:58.297Z,1011.35
2017-02-20T08:55:58.253Z,1011.37
2017-02-20T08:56:58.259Z,1011.48
2017-02-20T08:57:58.266Z,1011.38
2017-02-20T08:58:58.272Z,1011.43
2017-02-20T08:59:58.279Z,1011.43
2017-02-20T09:00:58.284Z,1011.44
2017-02-20T09:01:58.292Z,1011.42
2017-02-20T09:02:58.299Z,1011.46
2017-02-20T09:03:58.303Z,1011.4
2017-02-20T09:04:58.311Z,1011.43
2017-02-20T09:05:58.318Z,1011.41
2017-02-20T09:06:58.373Z,1011.41
2017-02-20T09:07:58.330Z,1011.43
2017-02-20T09:08:58.336Z,1011.45
2017-02-20T09:09:58.342Z,1011.32
2017-02-20T09:10:58.349Z,1011.34
2017-02-20T09:11:58.354Z,1011.31
2017-02-20T09:12:58.410Z,1011.27
2017-02-20T09:13:58.369Z,1011.3
2017-02-20T09:14:58.473Z,1011.36
2017-02-20T09:15:58.380Z,1011.28
2017-02-20T09:16:58.387Z,1011.22
2017-02-20T09:17:58.396Z,1011.26
2017-02-20T09:18:58.399Z,1011.28
2017-02-20T09:19:58.406Z,1011.29
2017-02-20T09:20:58.414Z,1011.29
2017-02-20T09:21:58.419Z,1011.26
2017-02-20T09:22:58.426Z,1011.24
2017-02-20T09:23:58.433Z,1011.25
2017-02-20T09:24:58.440Z,1011.19
2017-02-20T09:25:58.444Z,1011.19
2017-02-20T09:26:58.451Z,1011.12
2017-02-20T09:27:58.459Z,1011.18
2017-02-20T09:28:58.465Z,1011.17
2017-02-20T09:29:58.522Z,1011.18
2017-02-20T09:30:58.478Z,1011.17
2017-02-20T09:31:58.484Z,1011.14
2017-02-20T09:32:58.542Z,1011.16
2017-02-20T09:33:58.498Z,1011.11
2017-02-20T09:34:58.504Z,1011.13
2017-02-20T09:35:58.562Z,1011.21
2017-02-20T09:36:58.516Z,1011.15
2017-02-20T09:37:58.523Z,1011.17
2017-02-20T09:38:58.544Z,1011.2
2017-02-20T09:39:58.537Z,1011.15
2017-02-20T09:40:58.543Z,1011.2
2017-02-20T09:41:58.550Z,1011.18
2017-02-20T09:42:58.557Z,1011.17
2017-02-20T09:43:58.561Z,1011.13
2017-02-20T09:44:58.568Z,1011.15
2017-02-20T09:45:58.574Z,1011.16
2017-02-20T09:46:58.632Z,1011.14
2017-02-20T09:47:58.588Z,1011.16
2017-02-20T09:48:58.594Z,1011.16
2017-02-20T09:49:58.601Z,1011.17
2017-02-20T09:50:58.608Z,1011.15
2017-02-20T09:51:58.612Z,1011.2
2017-02-20T09:52:58.622Z,1011.2
2017-02-20T09:53:58.626Z,1011.24
2017-02-20T09:54:58.632Z,1011.29
2017-02-20T09:55:58.639Z,1011.25
2017-02-20T09:56:58.646Z,1011.26
2017-02-20T09:57:58.703Z,1011.13
2017-02-20T09:58:58.708Z,1011.19
2017-02-20T09:59:58.666Z,1011.23
2017-02-20T10:00:58.672Z,1011.17
2017-02-20T10:01:58.727Z,1011.14
2017-02-20T10:02:58.683Z,1011.18
2017-02-20T10:03:58.691Z,1011.2
2017-02-20T10:04:58.696Z,1011.16
2017-02-20T10:05:58.702Z,1011.17
2017-02-20T10:06:58.709Z,1011.17
2017-02-20T10:07:58.714Z,1011.19
2017-02-20T10:08:58.722Z,1011.13
2017-02-20T10:09:58.729Z,1011.09
2017-02-20T10:10:58.734Z,1011.12
2017-02-20T10:11:58.741Z,1011.12
2017-02-20T10:12:58.797Z,1011.08
2017-02-20T10:13:58.754Z,1011.16
2017-02-20T10:14:58.809Z,1011.14
2017-02-20T10:15:58.816Z,1011.13
2017-02-20T10:16:58.772Z,1011.08
2017-02-20T10:17:58.779Z,1011.15
2017-02-20T10:18:58.786Z,1011.11
2017-02-20T10:19:58.792Z,1011.09
2017-02-20T10:20:58.798Z,1011.11
2017-02-20T10:21:58.804Z,1011.1
2017-02-20T10:22:58.847Z,1011.11
2017-02-20T10:23:58.818Z,1011.06
2017-02-20T10:24:58.823Z,1011.08
2017-02-20T10:25:58.829Z,1011.02
2017-02-20T10:26:58.841Z,1011.03
2017-02-20T10:27:58.841Z,1011.01
2017-02-20T10:28:58.848Z,1011
2017-02-20T10:29:58.856Z,1010.99
2017-02-20T10:30:58.912Z,1011.02
2017-02-20T10:31:58.920Z,1011.04
2017-02-20T10:32:58.875Z,1011.02
2017-02-20T10:33:58.882Z,1011.07
2017-02-20T10:34:58.887Z,1011.03
2017-02-20T10:35:58.894Z,1011.01
2017-02-20T10:36:58.901Z,1010.98
2017-02-20T10:37:58.907Z,1010.98
2017-02-20T10:38:58.913Z,1010.98
2017-02-20T10:39:58.920Z,1010.93
2017-02-20T10:40:58.930Z,1010.99
2017-02-20T10:41:58.985Z,1010.99
2017-02-20T10:42:58.940Z,1010.96
2017-02-20T10:43:58.947Z,1011
2017-02-20T10:44:58.952Z,1010.95
2017-02-20T10:45:58.961Z,1010.99
2017-02-20T10:46:58.964Z,1010.96
2017-02-20T10:47:58.971Z,1010.95
2017-02-20T10:48:58.979Z,1010.95
2017-02-20T10:49:58.983Z,1010.99
2017-02-20T10:50:58.991Z,1011
2017-02-20T10:51:58.996Z,1011
2017-02-20T10:52:59.055Z,1010.89
2017-02-20T10:53:59.008Z,1010.94
2017-02-20T10:54:59.017Z,1010.9
2017-02-20T10:55:59.024Z,1010.91
2017-02-20T10:56:59.029Z,1010.88
2017-02-20T10:57:59.038Z,1010.88
2017-02-20T10:58:59.044Z,1010.87
2017-02-20T10:59:59.052Z,1010.84
2017-02-20T11:00:59.108Z,1010.86
2017-02-20T11:01:59.065Z,1010.87
2017-02-20T11:02:59.069Z,1010.8
2017-02-20T11:03:59.078Z,1010.76
2017-02-20T11:04:59.082Z,1010.85
2017-02-20T11:05:59.141Z,1010.81
2017-02-20T11:06:59.097Z,1010.84
2017-02-20T11:07:59.157Z,1010.79
2017-02-20T11:08:59.110Z,1010.71
2017-02-20T11:09:59.173Z,1010.71
2017-02-20T11:10:59.176Z,1010.79
2017-02-20T11:11:59.182Z,1010.71
2017-02-20T11:12:59.189Z,1010.71
2017-02-20T11:13:59.194Z,1010.65
2017-02-20T11:14:59.151Z,1010.65
2017-02-20T11:15:59.156Z,1010.7
2017-02-20T11:16:59.163Z,1010.72
2017-02-20T11:17:59.221Z,1010.77
2017-02-20T11:18:59.176Z,1010.74
2017-02-20T11:19:59.183Z,1010.69
2017-02-20T11:20:59.190Z,1010.66
2017-02-20T11:21:59.248Z,1010.67
2017-02-20T11:22:59.204Z,1010.59
2017-02-20T11:23:59.213Z,1010.57
2017-02-20T11:25:00.368Z,1010.46
2017-02-20T11:25:59.224Z,1010.52
2017-02-20T11:26:59.232Z,1010.46
2017-02-20T11:27:59.237Z,1010.49
2017-02-20T11:28:59.245Z,1010.48
2017-02-20T11:29:59.251Z,1010.42
2017-02-20T11:30:59.259Z,1010.43
2017-02-20T11:31:59.266Z,1010.4
2017-02-20T11:32:59.271Z,1010.35
2017-02-20T11:33:59.279Z,1010.41
2017-02-20T11:34:59.285Z,1010.37
2017-02-20T11:35:59.292Z,1010.5
2017-02-20T11:36:59.300Z,1010.36
2017-02-20T11:37:59.307Z,1010.33
2017-02-20T11:38:59.362Z,1010.34
2017-02-20T11:39:59.372Z,1010.34
2017-02-20T11:40:59.326Z,1010.32
2017-02-20T11:41:59.333Z,1010.3
2017-02-20T11:42:59.339Z,1010.34
2017-02-20T11:43:59.347Z,1010.27
2017-02-20T11:44:59.402Z,1010.24
2017-02-20T11:45:59.409Z,1010.27
2017-02-20T11:46:59.367Z,1010.25
2017-02-20T11:47:59.373Z,1010.25
2017-02-20T11:48:59.429Z,1010.26
2017-02-20T11:49:59.413Z,1010.25
2017-02-20T11:50:59.392Z,1010.26
2017-02-20T11:51:59.399Z,1010.15
2017-02-20T11:52:59.456Z,1010.18
2017-02-20T11:53:59.463Z,1010.19
2017-02-20T11:54:59.421Z,1010.18
2017-02-20T11:55:59.427Z,1010.11
2017-02-20T11:56:59.484Z,1010.12
2017-02-20T11:57:59.990Z,1010.11
2017-02-20T11:58:59.448Z,1010.09
2017-02-20T11:59:59.453Z,1010.07
2017-02-20T12:00:59.460Z,1010.09
2017-02-20T12:01:59.468Z,1010.03
2017-02-20T12:02:59.473Z,1009.99
2017-02-20T12:03:59.478Z,1010.01
2017-02-20T12:04:59.486Z,1009.97
2017-02-20T12:05:59.494Z,1009.95
2017-02-20T12:06:59.498Z,1009.91
2017-02-20T12:07:59.505Z,1009.9
2017-02-20T12:08:59.561Z,1009.86
2017-02-20T12:09:59.520Z,1009.95
2017-02-20T12:10:59.525Z,1009.85